Time;durP1;ratioP1;P1;durP2;ratioP2;P2;SDS_P1;SDS_P2;PMS_P1;PMS_P2;Temp;Humidity;BMP_temperature;BMP_pressure;BME280_temperature;BME280_humidity;BME280_pressure;Samples;Min_cycle;Max_cycle;Signal;HPM_P1;HPM_P2
2022/09/29 00:00:20;;;;;;;;;;;12.50;67.50;;;;;;5021168;28;19917;-85
2022/09/29 00:02:45;;;;;;;;;;;12.50;67.50;;;;;;5036856;28;19920;-85
2022/09/29 00:05:11;;;;;;;;;;;12.50;67.50;;;;;;5020486;28;19951;-85
2022/09/29 00:07:37;;;;;;;;;;;12.50;67.50;;;;;;5036781;28;19921;-86
2022/09/29 00:10:03;;;;;;;;;;;12.50;67.50;;;;;;5020702;28;19913;-85
2022/09/29 00:12:29;;;;;;;;;;;12.50;67.50;;;;;;5021138;28;19917;-85
2022/09/29 00:14:54;;;;;;;;;;;12.50;67.50;;;;;;5037914;28;19915;-86
2022/09/29 00:17:20;;;;;;;;;;;12.50;67.50;;;;;;5036749;28;20008;-86
2022/09/29 00:19:46;;;;;;;;;;;12.40;67.50;;;;;;5036322;28;19917;-85
2022/09/29 00:22:11;;;;;;;;;;;12.40;67.50;;;;;;5037669;28;19924;-85
2022/09/29 00:24:37;;;;;;;;;;;12.40;67.50;;;;;;5037352;28;19921;-86
2022/09/29 00:27:03;;;;;;;;;;;12.40;67.50;;;;;;5021106;28;19928;-85
2022/09/29 00:29:28;;;;;;;;;;;12.30;67.50;;;;;;5019746;28;19913;-86
2022/09/29 00:31:54;;;;;;;;;;;12.30;67.50;;;;;;5037312;28;19955;-86
2022/09/29 00:34:19;;;;;;;;;;;12.30;67.50;;;;;;5037033;28;19921;-85
2022/09/29 00:36:46;;;;;;;;;;;12.30;67.50;;;;;;5020504;28;19918;-86
2022/09/29 00:39:11;;;;;;;;;;;12.30;67.50;;;;;;5038099;28;19916;-86
2022/09/29 00:41:37;;;;;;;;;;;12.30;67.50;;;;;;5037394;28;20329;-86
2022/09/29 00:44:06;;;;;;;;;;;12.20;67.50;;;;;;5039089;28;19932;-85
2022/09/29 00:46:47;;;;;;;;;;;12.20;67.50;;;;;;5059348;28;19960;-85
2022/09/29 00:49:13;;;;;;;;;;;12.20;67.50;;;;;;5042382;28;19939;-86
2022/09/29 00:51:39;;;;;;;;;;;12.20;67.50;;;;;;5037589;28;19909;-85
2022/09/29 00:54:06;;;;;;;;;;;12.20;67.50;;;;;;5036338;28;19967;-86
2022/09/29 00:56:32;;;;;;;;;;;12.20;67.50;;;;;;5035606;28;19967;-86
2022/09/29 00:59:01;;;;;;;;;;;12.10;67.50;;;;;;5035118;28;19910;-84
2022/09/29 01:01:29;;;;;;;;;;;12.10;67.50;;;;;;5036960;28;19917;-86
2022/09/29 01:03:57;;;;;;;;;;;12.10;67.50;;;;;;5035757;28;20277;-86
2022/09/29 01:06:30;;;;;;;;;;;12.10;67.50;;;;;;5035548;28;19917;-86
2022/09/29 01:09:07;;;;;;;;;;;12.10;67.50;;;;;;5035888;28;19924;-85
2022/09/29 01:11:33;;;;;;;;;;;12.00;67.50;;;;;;5036375;28;19913;-85
2022/09/29 01:14:02;;;;;;;;;;;12.00;67.50;;;;;;5019032;28;20366;-85
2022/09/29 01:16:32;;;;;;;;;;;12.00;67.50;;;;;;5036329;28;19917;-85
2022/09/29 01:18:59;;;;;;;;;;;12.00;67.50;;;;;;5035349;28;19913;-86
2022/09/29 01:21:24;;;;;;;;;;;12.00;67.50;;;;;;5035191;28;20309;-85
2022/09/29 01:23:53;;;;;;;;;;;12.00;67.50;;;;;;5051734;28;19948;-85
2022/09/29 01:26:28;;;;;;;;;;;11.90;67.50;;;;;;5052304;28;20282;-85
2022/09/29 01:29:03;;;;;;;;;;;12.00;67.60;;;;;;5035696;28;20285;-84
2022/09/29 01:32:04;;;;;;;;;;;11.90;67.50;;;;;;5051707;28;19919;-85
2022/09/29 01:34:35;;;;;;;;;;;11.90;67.50;;;;;;4978581;28;19963;-86
2022/09/29 01:37:00;;;;;;;;;;;11.80;67.50;;;;;;5024483;28;19925;-84
2022/09/29 01:39:39;;;;;;;;;;;11.80;67.50;;;;;;5051776;28;20038;-85
2022/09/29 01:42:07;;;;;;;;;;;11.80;67.50;;;;;;5051549;28;19921;-85
2022/09/29 01:44:39;;;;;;;;;;;11.80;67.50;;;;;;5034840;28;19917;-85
2022/09/29 01:47:08;;;;;;;;;;;11.80;67.50;;;;;;5034999;28;19917;-83
2022/09/29 01:49:36;;;;;;;;;;;11.80;67.50;;;;;;5034927;28;19909;-85
2022/09/29 01:52:07;;;;;;;;;;;11.70;67.50;;;;;;5034529;28;19920;-84
2022/09/29 01:54:54;;;;;;;;;;;11.80;67.60;;;;;;5034758;28;19917;-83
2022/09/29 01:57:19;;;;;;;;;;;11.70;67.50;;;;;;5051323;28;19964;-86
2022/09/29 01:59:50;;;;;;;;;;;11.70;67.50;;;;;;5034857;28;19909;-86
2022/09/29 02:02:18;;;;;;;;;;;11.70;67.50;;;;;;5035323;28;19913;-86
2022/09/29 02:04:55;;;;;;;;;;;11.70;67.60;;;;;;5034893;28;19917;-85
2022/09/29 02:07:23;;;;;;;;;;;11.70;67.60;;;;;;5051475;28;20035;-85
2022/09/29 02:09:51;;;;;;;;;;;11.70;67.60;;;;;;5033963;28;19913;-85
2022/09/29 02:12:19;;;;;;;;;;;11.60;67.50;;;;;;5034365;28;19936;-85
2022/09/29 02:14:46;;;;;;;;;;;11.60;67.50;;;;;;5035226;28;19909;-85
2022/09/29 02:17:18;;;;;;;;;;;11.60;67.50;;;;;;5034536;28;19936;-85
2022/09/29 02:19:45;;;;;;;;;;;11.60;67.60;;;;;;5034564;28;19951;-85
2022/09/29 02:22:11;;;;;;;;;;;11.50;67.50;;;;;;5035217;28;19910;-85
2022/09/29 02:24:37;;;;;;;;;;;11.60;67.60;;;;;;5017825;28;19929;-85
2022/09/29 02:27:03;;;;;;;;;;;11.50;67.50;;;;;;5035193;28;20373;-84
2022/09/29 02:29:31;;;;;;;;;;;11.50;67.50;;;;;;5036686;28;19959;-85
2022/09/29 02:32:00;;;;;;;;;;;11.50;67.60;;;;;;5054694;28;20044;-87
2022/09/29 02:34:26;;;;;;;;;;;11.50;67.60;;;;;;5036107;28;19917;-84
2022/09/29 02:36:56;;;;;;;;;;;11.50;67.60;;;;;;5033901;28;19918;-84
2022/09/29 02:39:39;;;;;;;;;;;11.40;67.50;;;;;;5033792;28;19913;-85
2022/09/29 02:42:11;;;;;;;;;;;11.40;67.50;;;;;;5034516;28;19913;-85
2022/09/29 02:44:40;;;;;;;;;;;11.40;67.50;;;;;;5033953;28;19948;-86
2022/09/29 02:47:14;;;;;;;;;;;11.40;67.50;;;;;;5050622;28;19921;-84
2022/09/29 02:49:43;;;;;;;;;;;11.40;67.50;;;;;;5034006;28;19952;-85
2022/09/29 02:52:32;;;;;;;;;;;11.30;67.50;;;;;;5051093;28;19959;-84
2022/09/29 02:55:10;;;;;;;;;;;11.40;67.60;;;;;;5033897;28;19913;-85
2022/09/29 02:57:54;;;;;;;;;;;11.30;67.50;;;;;;5035065;28;20388;-85
2022/09/29 03:00:21;;;;;;;;;;;11.30;67.50;;;;;;5050083;28;19917;-85
2022/09/29 03:02:47;;;;;;;;;;;11.30;67.60;;;;;;5017451;28;20523;-85
2022/09/29 03:05:17;;;;;;;;;;;11.20;67.50;;;;;;5050569;28;19916;-85
2022/09/29 03:07:43;;;;;;;;;;;11.30;67.60;;;;;;5034428;28;19917;-85
2022/09/29 03:10:09;;;;;;;;;;;11.20;67.50;;;;;;5033541;28;20340;-85
2022/09/29 03:12:35;;;;;;;;;;;11.20;67.50;;;;;;5033682;28;19917;-84
2022/09/29 03:15:01;;;;;;;;;;;11.20;67.60;;;;;;5017364;28;19917;-85
2022/09/29 03:17:27;;;;;;;;;;;11.20;67.50;;;;;;5034344;28;19921;-84
2022/09/29 03:19:52;;;;;;;;;;;11.10;67.50;;;;;;5033519;28;20236;-83
2022/09/29 03:22:18;;;;;;;;;;;11.10;67.50;;;;;;5020713;28;20432;-86
2022/09/29 03:24:44;;;;;;;;;;;11.10;67.50;;;;;;5037197;28;19925;-85
2022/09/29 03:27:09;;;;;;;;;;;11.10;67.50;;;;;;5037791;28;20373;-85
2022/09/29 03:29:35;;;;;;;;;;;11.10;67.50;;;;;;5021040;28;19913;-85
2022/09/29 03:32:01;;;;;;;;;;;11.10;67.50;;;;;;5037403;28;19917;-84
2022/09/29 03:34:27;;;;;;;;;;;11.10;67.50;;;;;;5037191;28;19913;-84
2022/09/29 03:36:53;;;;;;;;;;;11.10;67.60;;;;;;5054145;28;19913;-85
2022/09/29 03:39:19;;;;;;;;;;;11.00;67.50;;;;;;5037311;28;19965;-85
2022/09/29 03:41:45;;;;;;;;;;;11.00;67.50;;;;;;5037121;28;20016;-84
2022/09/29 03:44:10;;;;;;;;;;;11.00;67.50;;;;;;5021564;28;19957;-85
2022/09/29 03:46:36;;;;;;;;;;;11.00;67.70;;;;;;5020704;28;20520;-85
2022/09/29 03:49:02;;;;;;;;;;;11.00;67.50;;;;;;5037148;28;19917;-84
2022/09/29 03:51:27;;;;;;;;;;;11.00;67.60;;;;;;5037184;28;19948;-85
2022/09/29 03:53:53;;;;;;;;;;;11.00;67.60;;;;;;5037471;28;19913;-85
2022/09/29 03:56:19;;;;;;;;;;;11.00;67.60;;;;;;5036925;28;19956;-84
2022/09/29 03:58:44;;;;;;;;;;;10.90;67.50;;;;;;5036796;28;19959;-83
2022/09/29 04:01:10;;;;;;;;;;;10.90;67.50;;;;;;5036679;28;20035;-86
2022/09/29 04:03:36;;;;;;;;;;;10.90;67.60;;;;;;5020213;28;20301;-86
2022/09/29 04:06:01;;;;;;;;;;;10.90;67.50;;;;;;5036750;28;19921;-86
2022/09/29 04:08:27;;;;;;;;;;;10.90;67.50;;;;;;5037720;28;19944;-84
2022/09/29 04:10:53;;;;;;;;;;;10.80;67.50;;;;;;5037326;28;19971;-84
2022/09/29 04:13:20;;;;;;;;;;;10.90;67.60;;;;;;5036826;28;20008;-83
2022/09/29 04:15:46;;;;;;;;;;;10.90;67.60;;;;;;5036633;28;19913;-84
2022/09/29 04:18:12;;;;;;;;;;;10.80;67.50;;;;;;5020447;28;19925;-85
2022/09/29 04:20:38;;;;;;;;;;;10.80;67.50;;;;;;5036958;28;20009;-85
2022/09/29 04:23:04;;;;;;;;;;;10.80;67.50;;;;;;5037070;28;19917;-85
2022/09/29 04:25:29;;;;;;;;;;;10.80;67.60;;;;;;5036701;28;20281;-85
2022/09/29 04:27:55;;;;;;;;;;;10.70;67.50;;;;;;5052603;28;20373;-86
2022/09/29 04:30:21;;;;;;;;;;;10.80;67.50;;;;;;5036590;28;20004;-85
2022/09/29 04:32:46;;;;;;;;;;;10.80;67.50;;;;;;5039270;28;19921;-86
2022/09/29 04:35:12;;;;;;;;;;;10.70;67.50;;;;;;5040247;28;20362;-86
2022/09/29 04:37:37;;;;;;;;;;;10.70;67.50;;;;;;5036900;28;19927;-86
2022/09/29 04:40:04;;;;;;;;;;;10.70;67.50;;;;;;5036602;28;19935;-84
2022/09/29 04:42:29;;;;;;;;;;;10.70;67.60;;;;;;5036407;28;19917;-86
2022/09/29 04:44:55;;;;;;;;;;;10.70;67.50;;;;;;5018847;28;19928;-85
2022/09/29 04:47:21;;;;;;;;;;;10.70;67.60;;;;;;5019300;28;20323;-84
2022/09/29 04:49:46;;;;;;;;;;;10.70;67.60;;;;;;5035818;28;19916;-84
2022/09/29 04:52:12;;;;;;;;;;;10.60;67.60;;;;;;5035458;28;19917;-85
2022/09/29 04:54:38;;;;;;;;;;;10.70;67.70;;;;;;5036772;28;20377;-84
2022/09/29 04:57:04;;;;;;;;;;;10.60;67.60;;;;;;5035608;28;19909;-85
2022/09/29 04:59:29;;;;;;;;;;;10.60;67.60;;;;;;5035601;28;19913;-86
2022/09/29 05:01:55;;;;;;;;;;;10.60;67.60;;;;;;5018974;28;19959;-85
2022/09/29 05:04:21;;;;;;;;;;;10.60;67.70;;;;;;5035298;28;19913;-85
2022/09/29 05:06:46;;;;;;;;;;;10.60;67.70;;;;;;5019258;28;19948;-85
2022/09/29 05:09:12;;;;;;;;;;;10.60;67.70;;;;;;5035529;28;20290;-86
2022/09/29 05:11:38;;;;;;;;;;;10.60;67.70;;;;;;5035814;28;20367;-86
2022/09/29 05:14:04;;;;;;;;;;;10.60;67.70;;;;;;5035626;28;19917;-86
2022/09/29 05:16:30;;;;;;;;;;;10.60;67.70;;;;;;5019840;28;19944;-84
2022/09/29 05:18:55;;;;;;;;;;;10.60;67.70;;;;;;5051918;28;20008;-84
2022/09/29 05:21:21;;;;;;;;;;;10.60;67.80;;;;;;5035334;28;19976;-84
2022/09/29 05:23:47;;;;;;;;;;;10.60;67.80;;;;;;5035076;28;19960;-81
2022/09/29 05:26:12;;;;;;;;;;;10.60;67.80;;;;;;5036170;28;19920;-85
2022/09/29 05:28:42;;;;;;;;;;;10.50;67.70;;;;;;5018546;28;19928;-84
2022/09/29 05:31:08;;;;;;;;;;;10.60;67.80;;;;;;5035906;28;19939;-83
2022/09/29 05:33:35;;;;;;;;;;;10.50;67.80;;;;;;5035413;28;20400;-85
2022/09/29 05:36:00;;;;;;;;;;;10.60;67.80;;;;;;5034895;28;20004;-85
2022/09/29 05:38:27;;;;;;;;;;;10.60;67.80;;;;;;5035939;28;19948;-86
2022/09/29 05:40:52;;;;;;;;;;;10.60;67.90;;;;;;5018221;28;19923;-86
2022/09/29 05:43:19;;;;;;;;;;;10.50;67.80;;;;;;5034312;28;19909;-86
2022/09/29 05:45:45;;;;;;;;;;;10.50;68.50;;;;;;5035589;28;20358;-86
2022/09/29 05:48:10;;;;;;;;;;;10.50;67.80;;;;;;5035210;28;19967;-86
2022/09/29 05:50:40;;;;;;;;;;;10.50;67.80;;;;;;5035590;28;19941;-86
2022/09/29 05:53:06;;;;;;;;;;;10.50;67.90;;;;;;5035171;28;19979;-87
2022/09/29 05:55:32;;;;;;;;;;;10.50;67.90;;;;;;5035073;28;19913;-88
2022/09/29 05:57:57;;;;;;;;;;;10.50;67.80;;;;;;5018318;28;19963;-88
2022/09/29 06:00:23;;;;;;;;;;;10.50;67.80;;;;;;5018745;28;19943;-89
2022/09/29 06:02:48;;;;;;;;;;;10.50;67.80;;;;;;5034860;28;19963;-89
2022/09/29 06:05:14;;;;;;;;;;;10.50;67.90;;;;;;5034928;28;19917;-88
2022/09/29 06:07:40;;;;;;;;;;;10.50;67.90;;;;;;5034753;28;19949;-88
2022/09/29 06:10:06;;;;;;;;;;;10.50;67.90;;;;;;5034719;28;19920;-89
2022/09/29 06:12:35;;;;;;;;;;;10.50;67.90;;;;;;5018996;28;19964;-89
2022/09/29 06:15:01;;;;;;;;;;;10.50;67.90;;;;;;5034512;28;20332;-85
2022/09/29 06:17:27;;;;;;;;;;;10.50;67.90;;;;;;5051213;28;19923;-85
2022/09/29 06:19:53;;;;;;;;;;;10.50;67.90;;;;;;5034394;28;19917;-87
2022/09/29 06:22:18;;;;;;;;;;;10.40;67.80;;;;;;5035701;28;19988;-89
2022/09/29 06:24:44;;;;;;;;;;;10.50;67.90;;;;;;5017675;28;20362;-87
2022/09/29 06:27:10;;;;;;;;;;;10.50;67.90;;;;;;5034575;28;20011;-86
2022/09/29 06:29:35;;;;;;;;;;;10.40;67.90;;;;;;5036087;28;20274;-87
2022/09/29 06:32:02;;;;;;;;;;;10.40;67.90;;;;;;5034311;28;19914;-87
2022/09/29 06:34:27;;;;;;;;;;;10.40;67.90;;;;;;5019141;28;19921;-87
2022/09/29 06:39:37;;;;;;;;;;;10.50;67.90;;;;;;5044827;28;19940;-86
2022/09/29 06:42:04;;;;;;;;;;;10.40;67.90;;;;;;5045822;28;19917;-87
2022/09/29 06:44:29;;;;;;;;;;;10.40;67.90;;;;;;5037172;28;19920;-88
2022/09/29 06:46:55;;;;;;;;;;;10.40;67.90;;;;;;5034532;28;19917;-85
2022/09/29 06:49:21;;;;;;;;;;;10.40;67.90;;;;;;5034063;28;19967;-85
2022/09/29 06:51:47;;;;;;;;;;;10.40;67.90;;;;;;5017367;28;19917;-85
2022/09/29 06:54:13;;;;;;;;;;;10.40;67.90;;;;;;5033673;28;19913;-85
2022/09/29 06:56:39;;;;;;;;;;;10.40;67.90;;;;;;5034033;28;19910;-87
2022/09/29 06:59:05;;;;;;;;;;;10.40;67.90;;;;;;5034914;28;19913;-86
2022/09/29 07:01:31;;;;;;;;;;;10.40;68.00;;;;;;5033664;28;19909;-86
2022/09/29 07:03:59;;;;;;;;;;;10.40;68.00;;;;;;5050397;28;20439;-87
2022/09/29 07:06:25;;;;;;;;;;;10.40;68.00;;;;;;5034901;28;19921;-87
2022/09/29 07:08:54;;;;;;;;;;;10.40;68.00;;;;;;5034052;28;19955;-86
2022/09/29 07:11:20;;;;;;;;;;;10.40;68.00;;;;;;5017363;28;19964;-87
2022/09/29 07:13:46;;;;;;;;;;;10.40;68.00;;;;;;5033957;28;19971;-86
2022/09/29 07:16:12;;;;;;;;;;;10.40;68.00;;;;;;5049920;28;19917;-87
2022/09/29 07:18:39;;;;;;;;;;;10.50;68.10;;;;;;5017168;28;20000;-87
2022/09/29 07:21:05;;;;;;;;;;;10.50;68.10;;;;;;5033563;28;19913;-87
2022/09/29 07:23:31;;;;;;;;;;;10.50;68.10;;;;;;5033660;28;19955;-87
2022/09/29 07:25:57;;;;;;;;;;;10.50;68.10;;;;;;5018143;28;19921;-87
2022/09/29 07:28:22;;;;;;;;;;;10.50;68.10;;;;;;5033721;28;20291;-87
2022/09/29 07:30:58;;;;;;;;;;;10.50;68.10;;;;;;5017073;28;20059;-86
2022/09/29 07:33:24;;;;;;;;;;;10.50;68.10;;;;;;5050742;28;19994;-87
2022/09/29 07:35:53;;;;;;;;;;;10.50;68.20;;;;;;5017965;28;19918;-86
2022/09/29 07:38:19;;;;;;;;;;;10.50;68.20;;;;;;5033519;28;19913;-86
2022/09/29 07:40:44;;;;;;;;;;;10.50;68.20;;;;;;5033618;28;19919;-87
2022/09/29 07:43:10;;;;;;;;;;;10.50;68.20;;;;;;5017156;28;19924;-86
2022/09/29 07:45:36;;;;;;;;;;;10.50;68.20;;;;;;5033628;28;20302;-87
2022/09/29 07:48:02;;;;;;;;;;;10.50;68.20;;;;;;5033446;28;20004;-86
2022/09/29 07:50:27;;;;;;;;;;;10.60;68.30;;;;;;5016959;28;19917;-85
2022/09/29 07:52:53;;;;;;;;;;;10.60;68.30;;;;;;5033765;28;19925;-85
2022/09/29 07:55:20;;;;;;;;;;;10.60;68.30;;;;;;5033231;28;19956;-86
2022/09/29 07:57:46;;;;;;;;;;;10.60;68.30;;;;;;5034601;28;19909;-85
2022/09/29 08:00:12;;;;;;;;;;;10.60;68.30;;;;;;5034059;28;20449;-85
2022/09/29 08:02:37;;;;;;;;;;;10.60;68.30;;;;;;5033345;28;19952;-85
2022/09/29 08:05:03;;;;;;;;;;;10.70;68.40;;;;;;5035010;28;20010;-86
2022/09/29 08:07:29;;;;;;;;;;;10.70;68.40;;;;;;5035755;28;20265;-84
2022/09/29 08:09:55;;;;;;;;;;;10.70;68.30;;;;;;5020227;28;19913;-85
2022/09/29 08:12:20;;;;;;;;;;;10.70;68.30;;;;;;5036995;28;19913;-84
2022/09/29 08:14:47;;;;;;;;;;;10.70;68.30;;;;;;5036595;28;19918;-85
2022/09/29 08:17:13;;;;;;;;;;;10.80;68.40;;;;;;5036926;28;19967;-85
2022/09/29 08:19:38;;;;;;;;;;;10.80;68.40;;;;;;5020516;28;20277;-85
2022/09/29 08:22:04;;;;;;;;;;;10.80;68.40;;;;;;5020302;28;20389;-85
2022/09/29 08:24:30;;;;;;;;;;;10.80;68.30;;;;;;5036375;28;19928;-86
2022/09/29 08:26:56;;;;;;;;;;;10.80;68.30;;;;;;5036977;28;19920;-86
2022/09/29 08:29:22;;;;;;;;;;;10.80;68.40;;;;;;5037692;28;19928;-86
2022/09/29 08:31:48;;;;;;;;;;;10.90;68.40;;;;;;5037572;28;19957;-85
2022/09/29 08:34:14;;;;;;;;;;;10.90;68.40;;;;;;5037466;28;20439;-86
2022/09/29 08:36:40;;;;;;;;;;;10.90;68.40;;;;;;5037628;28;20354;-86
2022/09/29 08:39:05;;;;;;;;;;;10.90;68.40;;;;;;5040115;28;19929;-86
2022/09/29 08:41:51;;;;;;;;;;;10.90;68.40;;;;;;5037655;28;19913;-85
2022/09/29 08:44:20;;;;;;;;;;;10.90;68.40;;;;;;5036693;28;19948;-85
2022/09/29 08:46:51;;;;;;;;;;;11.00;68.40;;;;;;5036088;28;19914;-84
2022/09/29 08:49:19;;;;;;;;;;;11.00;68.40;;;;;;5036752;28;19921;-87
2022/09/29 08:51:48;;;;;;;;;;;11.10;68.40;;;;;;5037187;28;20441;-85
2022/09/29 08:54:22;;;;;;;;;;;11.10;68.40;;;;;;5037011;28;19939;-85
2022/09/29 08:56:48;;;;;;;;;;;11.10;68.40;;;;;;5037102;28;19913;-84
2022/09/29 08:59:14;;;;;;;;;;;11.20;68.40;;;;;;5036746;28;19909;-84
2022/09/29 09:02:03;;;;;;;;;;;11.20;68.40;;;;;;5036681;28;20373;-84
2022/09/29 09:04:55;;;;;;;;;;;11.20;68.30;;;;;;5011908;28;19913;-84
2022/09/29 09:07:39;;;;;;;;;;;11.30;68.40;;;;;;4996932;28;20423;-85
2022/09/29 09:10:17;;;;;;;;;;;11.30;68.40;;;;;;5036039;28;19913;-85
2022/09/29 09:12:53;;;;;;;;;;;11.30;68.30;;;;;;5036149;28;19936;-85
2022/09/29 09:15:31;;;;;;;;;;;11.40;68.40;;;;;;5036162;28;20015;-84
2022/09/29 09:17:56;;;;;;;;;;;11.40;68.40;;;;;;5035932;28;19917;-85
2022/09/29 09:20:31;;;;;;;;;;;11.40;68.30;;;;;;5035414;28;19909;-84
2022/09/29 09:22:59;;;;;;;;;;;11.50;68.40;;;;;;5052491;28;19932;-85
2022/09/29 09:25:30;;;;;;;;;;;11.50;68.40;;;;;;5035743;28;19921;-84
2022/09/29 09:28:13;;;;;;;;;;;11.60;68.40;;;;;;5052480;28;19945;-85
2022/09/29 09:31:00;;;;;;;;;;;11.60;68.30;;;;;;5035959;28;19956;-85
2022/09/29 09:33:30;;;;;;;;;;;11.60;68.30;;;;;;5036251;28;20068;-85
2022/09/29 09:36:04;;;;;;;;;;;11.70;68.30;;;;;;5035997;28;19920;-85
2022/09/29 09:38:40;;;;;;;;;;;11.70;68.90;;;;;;5029649;28;19913;-85
2022/09/29 09:41:07;;;;;;;;;;;11.80;68.30;;;;;;5035736;28;20400;-85
2022/09/29 09:43:39;;;;;;;;;;;11.80;68.20;;;;;;5035759;28;19909;-85
2022/09/29 09:46:24;;;;;;;;;;;11.90;68.20;;;;;;5035508;28;19967;-83
2022/09/29 09:49:08;;;;;;;;;;;11.90;68.20;;;;;;5037150;28;19913;-86
2022/09/29 09:51:40;;;;;;;;;;;12.00;68.10;;;;;;5035956;28;20351;-84
2022/09/29 09:54:21;;;;;;;;;;;12.00;68.10;;;;;;5051894;28;19913;-85
2022/09/29 09:57:09;;;;;;;;;;;12.10;68.10;;;;;;5052466;28;19932;-87
2022/09/29 09:59:35;;;;;;;;;;;12.20;68.00;;;;;;5037163;28;19952;-86
2022/09/29 10:02:01;;;;;;;;;;;12.20;68.00;;;;;;5052705;28;19916;-87
2022/09/29 10:04:27;;;;;;;;;;;12.30;67.90;;;;;;5035026;28;20447;-85
2022/09/29 10:06:53;;;;;;;;;;;12.40;67.90;;;;;;5019433;28;19928;-87
2022/09/29 10:09:19;;;;;;;;;;;12.40;67.90;;;;;;5035186;28;19913;-88
2022/09/29 10:11:45;;;;;;;;;;;12.50;67.90;;;;;;5034938;28;19913;-89
2022/09/29 10:14:12;;;;;;;;;;;12.60;67.90;;;;;;5036397;28;19917;-87
2022/09/29 10:16:44;;;;;;;;;;;12.60;67.80;;;;;;5035867;28;20377;-90
2022/09/29 10:19:10;;;;;;;;;;;12.70;67.80;;;;;;5035219;28;20334;-88
2022/09/29 10:21:43;;;;;;;;;;;12.80;67.80;;;;;;5036642;28;19956;-90
2022/09/29 10:24:22;;;;;;;;;;;12.90;67.80;;;;;;5035653;28;19921;-90
2022/09/29 10:26:49;;;;;;;;;;;13.00;67.90;;;;;;5035746;28;19921;-89
2022/09/29 10:29:27;;;;;;;;;;;13.00;67.80;;;;;;5035050;28;19909;-89
2022/09/29 10:31:59;;;;;;;;;;;13.10;67.80;;;;;;5052282;28;19917;-89
2022/09/29 10:34:27;;;;;;;;;;;13.20;67.90;;;;;;5035116;28;19962;-89
2022/09/29 10:36:55;;;;;;;;;;;13.30;67.90;;;;;;5035470;28;19910;-89
2022/09/29 10:39:31;;;;;;;;;;;13.30;67.80;;;;;;5053091;28;19935;-88
2022/09/29 10:41:56;;;;;;;;;;;13.40;67.90;;;;;;5035087;28;19920;-87
2022/09/29 10:44:22;;;;;;;;;;;13.50;67.90;;;;;;5019430;28;20270;-87
2022/09/29 10:46:57;;;;;;;;;;;13.60;67.90;;;;;;5035186;28;19921;-87
2022/09/29 10:49:26;;;;;;;;;;;13.60;67.90;;;;;;5041816;28;19920;-87
2022/09/29 10:52:01;;;;;;;;;;;13.70;68.00;;;;;;5035909;28;19996;-87
2022/09/29 10:54:28;;;;;;;;;;;13.80;68.00;;;;;;5034951;28;20424;-88
2022/09/29 10:56:54;;;;;;;;;;;13.80;68.00;;;;;;5034750;28;19960;-85
2022/09/29 10:59:20;;;;;;;;;;;13.90;68.20;;;;;;5035080;28;19913;-85
2022/09/29 11:01:49;;;;;;;;;;;13.90;68.30;;;;;;5035065;28;20338;-87
2022/09/29 11:04:18;;;;;;;;;;;14.00;68.40;;;;;;5036063;28;19920;-82
2022/09/29 11:06:43;;;;;;;;;;;14.00;68.50;;;;;;5034513;28;19957;-85
2022/09/29 11:09:12;;;;;;;;;;;14.10;68.70;;;;;;5034827;28;19921;-84
2022/09/29 11:11:58;;;;;;;;;;;14.10;68.90;;;;;;5035649;28;19920;-86
2022/09/29 11:14:24;;;;;;;;;;;14.20;69.00;;;;;;5018225;28;19920;-86
2022/09/29 11:16:54;;;;;;;;;;;14.20;69.20;;;;;;5037068;28;19905;-87
2022/09/29 11:19:20;;;;;;;;;;;14.30;69.40;;;;;;5037002;28;19992;-87
2022/09/29 11:22:22;;;;;;;;;;;14.30;69.50;;;;;;5036606;28;19963;-87
2022/09/29 11:24:56;;;;;;;;;;;14.30;69.60;;;;;;4979926;28;19928;-87
2022/09/29 11:27:30;;;;;;;;;;;14.40;69.80;;;;;;5014346;28;19952;-86
2022/09/29 11:30:01;;;;;;;;;;;14.50;69.90;;;;;;5014823;28;19914;-86
2022/09/29 11:32:30;;;;;;;;;;;14.50;70.00;;;;;;5031368;28;19918;-86
2022/09/29 11:34:56;;;;;;;;;;;14.50;70.20;;;;;;5031181;28;19910;-84
2022/09/29 11:37:24;;;;;;;;;;;14.50;70.20;;;;;;5031106;28;19913;-85
2022/09/29 11:40:10;;;;;;;;;;;14.60;70.40;;;;;;5031175;28;19913;-85
2022/09/29 11:42:36;;;;;;;;;;;14.60;70.40;;;;;;5013666;28;19913;-84
2022/09/29 11:45:03;;;;;;;;;;;14.70;70.50;;;;;;5034536;28;19909;-84
2022/09/29 11:47:47;;;;;;;;;;;14.70;70.60;;;;;;5034456;28;19918;-84
2022/09/29 11:50:22;;;;;;;;;;;14.70;70.60;;;;;;5018503;28;19914;-84
2022/09/29 11:53:07;;;;;;;;;;;14.80;70.70;;;;;;5034961;28;19920;-84
2022/09/29 11:55:59;;;;;;;;;;;14.80;70.80;;;;;;5034497;28;19948;-84
2022/09/29 11:58:27;;;;;;;;;;;14.80;70.80;;;;;;5016923;28;19977;-84
2022/09/29 12:01:02;;;;;;;;;;;14.80;70.80;;;;;;5034145;28;19995;-84
2022/09/29 12:03:28;;;;;;;;;;;14.90;70.90;;;;;;5034578;28;20366;-85
2022/09/29 12:05:53;;;;;;;;;;;14.90;70.90;;;;;;5019351;28;19959;-84
2022/09/29 12:08:41;;;;;;;;;;;14.90;70.90;;;;;;5034712;28;19947;-85
2022/09/29 12:11:25;;;;;;;;;;;15.00;71.00;;;;;;5018265;28;19920;-85
2022/09/29 12:13:57;;;;;;;;;;;15.00;71.10;;;;;;5017434;28;19920;-85
2022/09/29 12:16:26;;;;;;;;;;;15.00;71.10;;;;;;5017304;28;19909;-85
2022/09/29 12:18:55;;;;;;;;;;;15.00;71.10;;;;;;5018008;28;20354;-85
2022/09/29 12:21:41;;;;;;;;;;;15.00;71.00;;;;;;5018306;28;19914;-85
2022/09/29 12:24:16;;;;;;;;;;;15.10;71.10;;;;;;5018127;28;19914;-85
2022/09/29 12:26:44;;;;;;;;;;;15.10;71.10;;;;;;5037975;28;19932;-85
2022/09/29 12:29:21;;;;;;;;;;;15.20;71.20;;;;;;5037723;28;19913;-84
2022/09/29 12:31:49;;;;;;;;;;;15.20;71.10;;;;;;5037073;28;19921;-84
2022/09/29 12:34:18;;;;;;;;;;;15.20;71.10;;;;;;5020519;28;20358;-84
2022/09/29 12:36:44;;;;;;;;;;;15.20;71.10;;;;;;5054275;28;19920;-85
2022/09/29 12:39:15;;;;;;;;;;;15.20;71.10;;;;;;5054571;28;19909;-85
2022/09/29 12:41:43;;;;;;;;;;;15.30;71.10;;;;;;5053800;28;19913;-84
2022/09/29 12:44:12;;;;;;;;;;;15.30;71.00;;;;;;5036750;28;19956;-84
2022/09/29 12:46:38;;;;;;;;;;;15.30;71.00;;;;;;5036431;28;19936;-85
2022/09/29 12:49:08;;;;;;;;;;;15.40;71.00;;;;;;5037247;28;20039;-84
2022/09/29 12:51:35;;;;;;;;;;;15.40;71.00;;;;;;5038154;28;19909;-84
2022/09/29 12:54:01;;;;;;;;;;;15.40;70.90;;;;;;5036894;28;19956;-84
2022/09/29 12:56:34;;;;;;;;;;;15.40;70.90;;;;;;5036489;28;19917;-85
2022/09/29 12:59:03;;;;;;;;;;;15.50;70.90;;;;;;5036414;28;19913;-84
2022/09/29 13:01:31;;;;;;;;;;;15.50;70.90;;;;;;5036369;28;19913;-84
2022/09/29 13:04:19;;;;;;;;;;;15.50;70.80;;;;;;5037390;28;19913;-85
2022/09/29 13:06:48;;;;;;;;;;;15.50;70.80;;;;;;5036970;28;19917;-84
2022/09/29 13:09:32;;;;;;;;;;;15.60;70.80;;;;;;5041048;28;19913;-84
2022/09/29 13:12:13;;;;;;;;;;;15.60;70.80;;;;;;5045857;28;19920;-85
2022/09/29 13:14:48;;;;;;;;;;;15.60;71.40;;;;;;5053464;28;19913;-85
2022/09/29 13:17:27;;;;;;;;;;;15.60;70.80;;;;;;5053362;28;19913;-85
2022/09/29 13:20:25;;;;;;;;;;;15.60;70.80;;;;;;5054908;28;19959;-85
2022/09/29 13:23:10;;;;;;;;;;;15.70;70.80;;;;;;5003539;28;19940;-85
2022/09/29 13:25:53;;;;;;;;;;;15.70;70.80;;;;;;5035367;28;19921;-84
2022/09/29 13:28:28;;;;;;;;;;;15.70;70.70;;;;;;5036610;28;19935;-87
2022/09/29 13:30:57;;;;;;;;;;;15.70;70.70;;;;;;5035802;28;19995;-86
2022/09/29 13:33:24;;;;;;;;;;;15.80;70.70;;;;;;5036397;28;19909;-86
2022/09/29 13:35:50;;;;;;;;;;;15.80;70.70;;;;;;5035676;28;20035;-86
2022/09/29 13:38:15;;;;;;;;;;;15.80;70.60;;;;;;5035866;28;19913;-86
2022/09/29 13:41:01;;;;;;;;;;;15.80;70.60;;;;;;5035401;28;19913;-86
2022/09/29 13:43:56;;;;;;;;;;;15.80;70.50;;;;;;5036080;28;19920;-86
2022/09/29 13:46:24;;;;;;;;;;;15.90;70.40;;;;;;5036588;28;19928;-86
2022/09/29 13:48:51;;;;;;;;;;;15.90;70.40;;;;;;5052171;28;19909;-87
2022/09/29 13:51:26;;;;;;;;;;;15.90;70.30;;;;;;5035923;28;20000;-86
2022/09/29 13:54:11;;;;;;;;;;;15.90;70.20;;;;;;5035563;28;19909;-86
2022/09/29 13:56:37;;;;;;;;;;;15.90;70.10;;;;;;5035875;28;20008;-86
2022/09/29 13:59:04;;;;;;;;;;;16.00;70.10;;;;;;5019475;28;20346;-85
2022/09/29 14:01:32;;;;;;;;;;;16.00;70.10;;;;;;5019309;28;20350;-85
2022/09/29 14:04:18;;;;;;;;;;;16.00;70.00;;;;;;5051766;28;19916;-85
2022/09/29 14:06:46;;;;;;;;;;;16.00;69.90;;;;;;5035115;28;19921;-86
2022/09/29 14:09:22;;;;;;;;;;;16.10;69.90;;;;;;5035417;28;20392;-86
2022/09/29 14:11:49;;;;;;;;;;;16.10;69.80;;;;;;5029428;28;19966;-86
2022/09/29 14:14:21;;;;;;;;;;;16.10;69.80;;;;;;5035051;28;19949;-85
2022/09/29 14:16:53;;;;;;;;;;;16.10;69.70;;;;;;5052183;28;20001;-85
2022/09/29 14:19:26;;;;;;;;;;;16.20;69.70;;;;;;5035289;28;20281;-86
2022/09/29 14:21:55;;;;;;;;;;;16.20;69.60;;;;;;5034650;28;19913;-85
2022/09/29 14:24:38;;;;;;;;;;;16.20;69.50;;;;;;5034497;28;19928;-87
2022/09/29 14:27:16;;;;;;;;;;;16.20;69.50;;;;;;5051050;28;19921;-84
2022/09/29 14:29:46;;;;;;;;;;;16.20;69.50;;;;;;5035601;28;19913;-84
2022/09/29 14:32:27;;;;;;;;;;;16.30;69.50;;;;;;5051731;28;19991;-85